Terminal Aerodrome Forecast
Issued by NWS

Home | Current Version | Previous Version | Graphics & Text | Print | Product List | Glossary On
Versions: 1 2 3 4 5 6 7 8 9 10 11 12
887
FTUS43 KIWX 290520
TAFSBN
TAF
KSBN 290520Z 2906/3006 02010KT P6SM -SHRA OVC020
     FM291200 03012KT P6SM VCSH OVC025
     FM292200 04012KT P6SM VCSH OVC015
     FM300100 04011KT 3SM BR VCSH OVC008=

USA.gov is the U.S. government's official web portal to all federal, state and local government web resources and services.